sensor_id;sensor_type;location;lat;lon;timestamp;temperature;humidity
13686;DHT22;6915;48.296;8.874;2022-10-16T00:00:33;13.50;99.90
13686;DHT22;6915;48.296;8.874;2022-10-16T00:03:00;13.50;99.90
13686;DHT22;6915;48.296;8.874;2022-10-16T00:05:28;13.40;99.90
13686;DHT22;6915;48.296;8.874;2022-10-16T00:07:55;13.40;99.90
13686;DHT22;6915;48.296;8.874;2022-10-16T00:10:22;13.50;99.90
13686;DHT22;6915;48.296;8.874;2022-10-16T00:12:49;13.40;99.90
13686;DHT22;6915;48.296;8.874;2022-10-16T00:15:17;13.40;99.90
13686;DHT22;6915;48.296;8.874;2022-10-16T00:17:44;13.30;99.90
13686;DHT22;6915;48.296;8.874;2022-10-16T00:20:11;13.30;99.90
13686;DHT22;6915;48.296;8.874;2022-10-16T00:22:38;13.30;99.90
13686;DHT22;6915;48.296;8.874;2022-10-16T00:25:06;13.30;99.90
13686;DHT22;6915;48.296;8.874;2022-10-16T00:27:33;13.20;99.90
13686;DHT22;6915;48.296;8.874;2022-10-16T00:30:00;13.20;99.90
13686;DHT22;6915;48.296;8.874;2022-10-16T00:32:28;13.10;99.90
13686;DHT22;6915;48.296;8.874;2022-10-16T00:34:56;13.10;99.90
13686;DHT22;6915;48.296;8.874;2022-10-16T00:37:23;13.10;99.90
13686;DHT22;6915;48.296;8.874;2022-10-16T00:39:50;13.10;99.90
13686;DHT22;6915;48.296;8.874;2022-10-16T00:42:18;13.10;99.90
13686;DHT22;6915;48.296;8.874;2022-10-16T00:44:50;13.10;99.90
13686;DHT22;6915;48.296;8.874;2022-10-16T00:47:22;13.10;99.90
13686;DHT22;6915;48.296;8.874;2022-10-16T00:49:57;13.10;99.90
13686;DHT22;6915;48.296;8.874;2022-10-16T00:52:25;13.10;99.90
13686;DHT22;6915;48.296;8.874;2022-10-16T00:54:52;13.10;99.90
13686;DHT22;6915;48.296;8.874;2022-10-16T00:57:20;13.10;99.90
13686;DHT22;6915;48.296;8.874;2022-10-16T00:59:47;13.10;99.90
13686;DHT22;6915;48.296;8.874;2022-10-16T01:02:15;13.10;99.90
13686;DHT22;6915;48.296;8.874;2022-10-16T01:04:45;13.20;99.90
13686;DHT22;6915;48.296;8.874;2022-10-16T01:07:19;13.10;99.90
13686;DHT22;6915;48.296;8.874;2022-10-16T01:09:59;13.10;99.90
13686;DHT22;6915;48.296;8.874;2022-10-16T01:12:37;13.20;99.90
13686;DHT22;6915;48.296;8.874;2022-10-16T01:15:14;13.10;99.90
13686;DHT22;6915;48.296;8.874;2022-10-16T01:17:46;13.10;99.90
13686;DHT22;6915;48.296;8.874;2022-10-16T01:20:21;13.10;99.90
13686;DHT22;6915;48.296;8.874;2022-10-16T01:23:06;13.10;99.90
13686;DHT22;6915;48.296;8.874;2022-10-16T01:25:46;13.10;99.90
13686;DHT22;6915;48.296;8.874;2022-10-16T01:28:19;13.10;99.90
13686;DHT22;6915;48.296;8.874;2022-10-16T01:30:48;13.10;99.90
13686;DHT22;6915;48.296;8.874;2022-10-16T01:33:20;13.10;99.90
13686;DHT22;6915;48.296;8.874;2022-10-16T01:35:52;13.10;99.90
13686;DHT22;6915;48.296;8.874;2022-10-16T01:38:24;13.10;99.90
13686;DHT22;6915;48.296;8.874;2022-10-16T01:40:58;13.10;99.90
13686;DHT22;6915;48.296;8.874;2022-10-16T01:43:33;13.10;99.90
13686;DHT22;6915;48.296;8.874;2022-10-16T01:46:02;13.30;99.90
13686;DHT22;6915;48.296;8.874;2022-10-16T01:48:30;13.20;99.90
13686;DHT22;6915;48.296;8.874;2022-10-16T01:51:04;13.20;99.90
13686;DHT22;6915;48.296;8.874;2022-10-16T01:53:32;13.20;99.90
13686;DHT22;6915;48.296;8.874;2022-10-16T01:56:00;13.20;99.90
13686;DHT22;6915;48.296;8.874;2022-10-16T01:58:34;13.10;99.90
13686;DHT22;6915;48.296;8.874;2022-10-16T02:01:05;13.10;99.90
13686;DHT22;6915;48.296;8.874;2022-10-16T02:03:34;13.10;99.90
13686;DHT22;6915;48.296;8.874;2022-10-16T02:06:04;13.10;99.90
13686;DHT22;6915;48.296;8.874;2022-10-16T02:08:31;13.10;99.90
13686;DHT22;6915;48.296;8.874;2022-10-16T02:11:00;13.20;99.90
13686;DHT22;6915;48.296;8.874;2022-10-16T02:13:32;13.10;99.90
13686;DHT22;6915;48.296;8.874;2022-10-16T02:16:00;13.10;99.90
13686;DHT22;6915;48.296;8.874;2022-10-16T02:18:27;13.00;99.90
13686;DHT22;6915;48.296;8.874;2022-10-16T02:20:58;13.00;99.90
13686;DHT22;6915;48.296;8.874;2022-10-16T02:23:33;13.00;99.90
13686;DHT22;6915;48.296;8.874;2022-10-16T02:26:04;13.00;99.90
13686;DHT22;6915;48.296;8.874;2022-10-16T02:28:38;13.10;99.90
13686;DHT22;6915;48.296;8.874;2022-10-16T02:31:11;13.00;99.90
13686;DHT22;6915;48.296;8.874;2022-10-16T02:33:40;13.00;99.90
13686;DHT22;6915;48.296;8.874;2022-10-16T02:36:08;13.00;99.90
13686;DHT22;6915;48.296;8.874;2022-10-16T02:38:36;13.00;99.90
13686;DHT22;6915;48.296;8.874;2022-10-16T02:41:05;13.00;99.90
13686;DHT22;6915;48.296;8.874;2022-10-16T02:43:32;13.00;99.90
13686;DHT22;6915;48.296;8.874;2022-10-16T02:46:01;13.00;99.90
13686;DHT22;6915;48.296;8.874;2022-10-16T02:48:28;13.00;99.90
13686;DHT22;6915;48.296;8.874;2022-10-16T02:50:55;13.00;99.90
13686;DHT22;6915;48.296;8.874;2022-10-16T02:53:22;12.90;99.90
13686;DHT22;6915;48.296;8.874;2022-10-16T02:55:49;12.90;99.90
13686;DHT22;6915;48.296;8.874;2022-10-16T02:58:16;12.90;99.90
13686;DHT22;6915;48.296;8.874;2022-10-16T03:00:43;12.90;99.90
13686;DHT22;6915;48.296;8.874;2022-10-16T03:03:11;12.90;99.90
13686;DHT22;6915;48.296;8.874;2022-10-16T03:05:39;12.90;99.90
13686;DHT22;6915;48.296;8.874;2022-10-16T03:08:05;12.90;99.90
13686;DHT22;6915;48.296;8.874;2022-10-16T03:10:32;12.90;99.90
13686;DHT22;6915;48.296;8.874;2022-10-16T03:12:59;12.90;99.90
13686;DHT22;6915;48.296;8.874;2022-10-16T03:15:26;12.80;99.90
13686;DHT22;6915;48.296;8.874;2022-10-16T03:17:53;12.80;99.90
13686;DHT22;6915;48.296;8.874;2022-10-16T03:20:22;12.80;99.90
13686;DHT22;6915;48.296;8.874;2022-10-16T03:22:49;12.90;99.90
13686;DHT22;6915;48.296;8.874;2022-10-16T03:25:16;12.90;99.90
13686;DHT22;6915;48.296;8.874;2022-10-16T03:27:43;12.90;99.90
13686;DHT22;6915;48.296;8.874;2022-10-16T03:30:10;12.90;99.90
13686;DHT22;6915;48.296;8.874;2022-10-16T03:32:37;12.90;99.90
13686;DHT22;6915;48.296;8.874;2022-10-16T03:35:05;12.90;99.90
13686;DHT22;6915;48.296;8.874;2022-10-16T03:37:33;12.90;99.90
13686;DHT22;6915;48.296;8.874;2022-10-16T03:40:00;12.90;99.90
13686;DHT22;6915;48.296;8.874;2022-10-16T03:42:27;12.90;99.90
13686;DHT22;6915;48.296;8.874;2022-10-16T03:44:54;12.80;99.90
13686;DHT22;6915;48.296;8.874;2022-10-16T03:47:21;12.80;99.90
13686;DHT22;6915;48.296;8.874;2022-10-16T03:49:49;12.80;99.90
13686;DHT22;6915;48.296;8.874;2022-10-16T03:52:16;12.80;99.90
13686;DHT22;6915;48.296;8.874;2022-10-16T03:54:45;12.80;99.90
13686;DHT22;6915;48.296;8.874;2022-10-16T03:57:12;12.80;99.90
13686;DHT22;6915;48.296;8.874;2022-10-16T03:59:38;12.90;99.90
13686;DHT22;6915;48.296;8.874;2022-10-16T04:02:05;13.00;99.90
13686;DHT22;6915;48.296;8.874;2022-10-16T04:04:33;13.10;99.90
13686;DHT22;6915;48.296;8.874;2022-10-16T04:07:00;13.10;99.90
13686;DHT22;6915;48.296;8.874;2022-10-16T04:09:27;13.10;99.90
13686;DHT22;6915;48.296;8.874;2022-10-16T04:11:55;13.20;99.90
13686;DHT22;6915;48.296;8.874;2022-10-16T04:14:22;13.20;99.90
13686;DHT22;6915;48.296;8.874;2022-10-16T04:16:49;13.30;99.90
13686;DHT22;6915;48.296;8.874;2022-10-16T04:19:16;13.30;99.90
13686;DHT22;6915;48.296;8.874;2022-10-16T04:21:43;13.30;99.90
13686;DHT22;6915;48.296;8.874;2022-10-16T04:24:10;13.30;99.90
13686;DHT22;6915;48.296;8.874;2022-10-16T04:26:37;13.30;99.90
13686;DHT22;6915;48.296;8.874;2022-10-16T04:29:06;13.30;99.90
13686;DHT22;6915;48.296;8.874;2022-10-16T04:31:33;13.30;99.90
13686;DHT22;6915;48.296;8.874;2022-10-16T04:34:00;13.30;99.90
13686;DHT22;6915;48.296;8.874;2022-10-16T04:36:27;13.30;99.90
13686;DHT22;6915;48.296;8.874;2022-10-16T04:38:54;13.40;99.90
13686;DHT22;6915;48.296;8.874;2022-10-16T04:41:20;13.30;99.90
13686;DHT22;6915;48.296;8.874;2022-10-16T04:43:47;13.30;99.90
13686;DHT22;6915;48.296;8.874;2022-10-16T04:46:16;13.30;99.90
13686;DHT22;6915;48.296;8.874;2022-10-16T04:48:43;13.20;99.90
13686;DHT22;6915;48.296;8.874;2022-10-16T04:51:09;13.20;99.90
13686;DHT22;6915;48.296;8.874;2022-10-16T04:53:36;13.20;99.90
13686;DHT22;6915;48.296;8.874;2022-10-16T04:56:04;13.20;99.90
13686;DHT22;6915;48.296;8.874;2022-10-16T04:58:31;13.30;99.90
13686;DHT22;6915;48.296;8.874;2022-10-16T05:00:58;13.30;99.90
13686;DHT22;6915;48.296;8.874;2022-10-16T05:03:26;13.30;99.90
13686;DHT22;6915;48.296;8.874;2022-10-16T05:05:53;13.20;99.90
13686;DHT22;6915;48.296;8.874;2022-10-16T05:08:20;13.20;99.90
13686;DHT22;6915;48.296;8.874;2022-10-16T05:10:47;13.20;99.90
13686;DHT22;6915;48.296;8.874;2022-10-16T05:13:14;13.20;99.90
13686;DHT22;6915;48.296;8.874;2022-10-16T05:15:41;13.10;99.90
13686;DHT22;6915;48.296;8.874;2022-10-16T05:18:08;13.10;99.90
13686;DHT22;6915;48.296;8.874;2022-10-16T05:20:37;13.00;99.90
13686;DHT22;6915;48.296;8.874;2022-10-16T05:23:04;13.00;99.90
13686;DHT22;6915;48.296;8.874;2022-10-16T05:25:30;12.90;99.90
13686;DHT22;6915;48.296;8.874;2022-10-16T05:27:57;12.90;99.90
13686;DHT22;6915;48.296;8.874;2022-10-16T05:30:24;12.90;99.90
13686;DHT22;6915;48.296;8.874;2022-10-16T05:32:51;12.80;99.90
13686;DHT22;6915;48.296;8.874;2022-10-16T05:35:19;12.80;99.90
13686;DHT22;6915;48.296;8.874;2022-10-16T05:37:47;12.80;99.90
13686;DHT22;6915;48.296;8.874;2022-10-16T05:40:15;12.80;99.90
13686;DHT22;6915;48.296;8.874;2022-10-16T05:42:42;12.80;99.90
13686;DHT22;6915;48.296;8.874;2022-10-16T05:45:10;12.80;99.90
13686;DHT22;6915;48.296;8.874;2022-10-16T05:47:38;12.80;99.90
13686;DHT22;6915;48.296;8.874;2022-10-16T05:50:08;12.70;99.90
13686;DHT22;6915;48.296;8.874;2022-10-16T05:52:35;12.70;99.90
13686;DHT22;6915;48.296;8.874;2022-10-16T05:55:05;12.70;99.90
13686;DHT22;6915;48.296;8.874;2022-10-16T05:57:31;12.70;99.90
13686;DHT22;6915;48.296;8.874;2022-10-16T05:59:58;12.70;99.90
13686;DHT22;6915;48.296;8.874;2022-10-16T06:02:26;12.70;99.90
13686;DHT22;6915;48.296;8.874;2022-10-16T06:04:53;12.70;99.90
13686;DHT22;6915;48.296;8.874;2022-10-16T06:07:22;12.70;99.90
13686;DHT22;6915;48.296;8.874;2022-10-16T06:09:50;12.80;99.90
13686;DHT22;6915;48.296;8.874;2022-10-16T06:12:19;12.80;99.90
13686;DHT22;6915;48.296;8.874;2022-10-16T06:14:46;13.00;99.90
13686;DHT22;6915;48.296;8.874;2022-10-16T06:17:15;13.10;99.90
13686;DHT22;6915;48.296;8.874;2022-10-16T06:19:42;13.20;99.90
13686;DHT22;6915;48.296;8.874;2022-10-16T06:22:10;13.20;99.90
13686;DHT22;6915;48.296;8.874;2022-10-16T06:24:38;13.40;99.90
13686;DHT22;6915;48.296;8.874;2022-10-16T06:27:05;13.30;99.90
13686;DHT22;6915;48.296;8.874;2022-10-16T06:29:33;13.40;99.90
13686;DHT22;6915;48.296;8.874;2022-10-16T06:32:00;13.50;99.90
13686;DHT22;6915;48.296;8.874;2022-10-16T06:34:27;13.50;99.90
13686;DHT22;6915;48.296;8.874;2022-10-16T06:36:54;13.60;99.90
13686;DHT22;6915;48.296;8.874;2022-10-16T06:39:21;13.60;99.90
13686;DHT22;6915;48.296;8.874;2022-10-16T06:41:48;13.50;99.90
13686;DHT22;6915;48.296;8.874;2022-10-16T06:44:15;13.50;99.90
13686;DHT22;6915;48.296;8.874;2022-10-16T06:46:43;13.60;99.90
13686;DHT22;6915;48.296;8.874;2022-10-16T06:49:10;13.60;99.90
13686;DHT22;6915;48.296;8.874;2022-10-16T06:51:37;13.60;99.90
13686;DHT22;6915;48.296;8.874;2022-10-16T06:54:06;13.70;99.90
13686;DHT22;6915;48.296;8.874;2022-10-16T06:56:34;13.70;99.90
13686;DHT22;6915;48.296;8.874;2022-10-16T06:59:01;13.80;99.90
13686;DHT22;6915;48.296;8.874;2022-10-16T07:01:28;13.80;99.90
13686;DHT22;6915;48.296;8.874;2022-10-16T07:03:57;13.90;99.90
13686;DHT22;6915;48.296;8.874;2022-10-16T07:06:25;13.90;99.90
13686;DHT22;6915;48.296;8.874;2022-10-16T07:08:53;13.90;99.90
13686;DHT22;6915;48.296;8.874;2022-10-16T07:11:22;13.90;99.90
13686;DHT22;6915;48.296;8.874;2022-10-16T07:13:50;14.00;99.90
13686;DHT22;6915;48.296;8.874;2022-10-16T07:16:19;14.00;99.90
13686;DHT22;6915;48.296;8.874;2022-10-16T07:18:47;14.10;99.90
13686;DHT22;6915;48.296;8.874;2022-10-16T07:21:17;14.20;99.90
13686;DHT22;6915;48.296;8.874;2022-10-16T07:23:49;14.30;99.90
13686;DHT22;6915;48.296;8.874;2022-10-16T07:26:16;14.30;99.90
13686;DHT22;6915;48.296;8.874;2022-10-16T07:28:43;14.60;99.90
13686;DHT22;6915;48.296;8.874;2022-10-16T07:31:11;14.60;99.90
13686;DHT22;6915;48.296;8.874;2022-10-16T07:33:40;14.80;99.90
13686;DHT22;6915;48.296;8.874;2022-10-16T07:36:07;14.90;99.90
13686;DHT22;6915;48.296;8.874;2022-10-16T07:38:36;15.10;99.90
13686;DHT22;6915;48.296;8.874;2022-10-16T07:41:05;15.20;99.90
13686;DHT22;6915;48.296;8.874;2022-10-16T07:43:32;15.30;99.90
13686;DHT22;6915;48.296;8.874;2022-10-16T07:46:00;15.40;99.90
13686;DHT22;6915;48.296;8.874;2022-10-16T07:48:28;15.60;99.90
13686;DHT22;6915;48.296;8.874;2022-10-16T07:50:57;15.80;99.90
13686;DHT22;6915;48.296;8.874;2022-10-16T07:53:24;16.00;99.90
13686;DHT22;6915;48.296;8.874;2022-10-16T07:55:57;16.00;99.90
13686;DHT22;6915;48.296;8.874;2022-10-16T07:58:24;16.00;99.90
13686;DHT22;6915;48.296;8.874;2022-10-16T08:00:51;16.00;99.90
13686;DHT22;6915;48.296;8.874;2022-10-16T08:03:18;16.10;99.90
13686;DHT22;6915;48.296;8.874;2022-10-16T08:05:45;16.20;99.90
13686;DHT22;6915;48.296;8.874;2022-10-16T08:08:13;16.30;99.90
13686;DHT22;6915;48.296;8.874;2022-10-16T08:10:40;16.40;99.90
13686;DHT22;6915;48.296;8.874;2022-10-16T08:13:09;16.50;99.90
13686;DHT22;6915;48.296;8.874;2022-10-16T08:15:36;16.50;99.90
13686;DHT22;6915;48.296;8.874;2022-10-16T08:18:04;16.50;99.90
13686;DHT22;6915;48.296;8.874;2022-10-16T08:20:32;16.60;99.90
13686;DHT22;6915;48.296;8.874;2022-10-16T08:22:59;16.70;99.90
13686;DHT22;6915;48.296;8.874;2022-10-16T08:25:26;16.80;99.90
13686;DHT22;6915;48.296;8.874;2022-10-16T08:27:53;17.00;99.90
13686;DHT22;6915;48.296;8.874;2022-10-16T08:30:22;17.10;99.90
13686;DHT22;6915;48.296;8.874;2022-10-16T08:32:49;17.30;99.90
13686;DHT22;6915;48.296;8.874;2022-10-16T08:35:16;17.50;99.90
13686;DHT22;6915;48.296;8.874;2022-10-16T08:37:43;17.60;99.90
13686;DHT22;6915;48.296;8.874;2022-10-16T08:40:16;17.70;99.90
13686;DHT22;6915;48.296;8.874;2022-10-16T08:42:56;17.80;99.90
13686;DHT22;6915;48.296;8.874;2022-10-16T08:45:41;17.90;99.90
13686;DHT22;6915;48.296;8.874;2022-10-16T08:48:17;18.00;99.90
13686;DHT22;6915;48.296;8.874;2022-10-16T08:50:45;18.20;99.90
13686;DHT22;6915;48.296;8.874;2022-10-16T08:53:17;18.40;99.90
13686;DHT22;6915;48.296;8.874;2022-10-16T08:55:51;18.60;99.90
13686;DHT22;6915;48.296;8.874;2022-10-16T08:58:21;18.80;99.40
13686;DHT22;6915;48.296;8.874;2022-10-16T09:00:53;18.90;1.00
13686;DHT22;6915;48.296;8.874;2022-10-16T09:03:39;18.90;1.00
13686;DHT22;6915;48.296;8.874;2022-10-16T09:06:20;18.90;1.00
13686;DHT22;6915;48.296;8.874;2022-10-16T09:09:00;19.00;1.00
13686;DHT22;6915;48.296;8.874;2022-10-16T09:11:39;19.10;1.00
13686;DHT22;6915;48.296;8.874;2022-10-16T09:14:23;19.20;1.00
13686;DHT22;6915;48.296;8.874;2022-10-16T09:17:00;19.30;1.00
13686;DHT22;6915;48.296;8.874;2022-10-16T09:19:33;19.40;1.00
13686;DHT22;6915;48.296;8.874;2022-10-16T09:22:10;19.40;99.90
13686;DHT22;6915;48.296;8.874;2022-10-16T09:24:39;19.40;99.90
13686;DHT22;6915;48.296;8.874;2022-10-16T09:27:08;19.50;1.00
13686;DHT22;6915;48.296;8.874;2022-10-16T09:29:36;19.60;1.00
13686;DHT22;6915;48.296;8.874;2022-10-16T09:32:12;19.70;99.90
13686;DHT22;6915;48.296;8.874;2022-10-16T09:34:49;19.80;99.90
13686;DHT22;6915;48.296;8.874;2022-10-16T09:37:29;19.90;61.90
13686;DHT22;6915;48.296;8.874;2022-10-16T09:40:12;19.90;99.90
13686;DHT22;6915;48.296;8.874;2022-10-16T09:42:46;20.00;99.90
13686;DHT22;6915;48.296;8.874;2022-10-16T09:45:21;20.00;99.90
13686;DHT22;6915;48.296;8.874;2022-10-16T09:47:51;19.90;99.90
13686;DHT22;6915;48.296;8.874;2022-10-16T09:50:23;19.90;1.00
13686;DHT22;6915;48.296;8.874;2022-10-16T09:53:03;19.70;1.00
13686;DHT22;6915;48.296;8.874;2022-10-16T09:55:30;19.60;99.90
13686;DHT22;6915;48.296;8.874;2022-10-16T09:57:57;19.60;1.00
13686;DHT22;6915;48.296;8.874;2022-10-16T10:00:25;19.60;1.00
13686;DHT22;6915;48.296;8.874;2022-10-16T10:02:54;19.50;1.00
13686;DHT22;6915;48.296;8.874;2022-10-16T10:05:22;19.50;99.90
13686;DHT22;6915;48.296;8.874;2022-10-16T10:07:55;19.60;99.90
13686;DHT22;6915;48.296;8.874;2022-10-16T10:10:24;19.60;99.90
13686;DHT22;6915;48.296;8.874;2022-10-16T10:12:51;19.70;1.00
13686;DHT22;6915;48.296;8.874;2022-10-16T10:15:18;19.80;1.00
13686;DHT22;6915;48.296;8.874;2022-10-16T10:17:49;19.80;51.10
13686;DHT22;6915;48.296;8.874;2022-10-16T10:20:25;19.90;1.00
13686;DHT22;6915;48.296;8.874;2022-10-16T10:22:53;19.90;1.00
13686;DHT22;6915;48.296;8.874;2022-10-16T10:25:44;19.90;1.00
13686;DHT22;6915;48.296;8.874;2022-10-16T10:28:25;20.00;1.00
13686;DHT22;6915;48.296;8.874;2022-10-16T10:31:01;20.10;1.00
13686;DHT22;6915;48.296;8.874;2022-10-16T10:33:37;20.20;99.90
13686;DHT22;6915;48.296;8.874;2022-10-16T10:36:25;20.50;1.30
13686;DHT22;6915;48.296;8.874;2022-10-16T10:38:58;20.70;99.90
13686;DHT22;6915;48.296;8.874;2022-10-16T10:41:55;21.00;1.00
13686;DHT22;6915;48.296;8.874;2022-10-16T10:44:33;21.10;99.90
13686;DHT22;6915;48.296;8.874;2022-10-16T10:47:08;20.90;21.80
13686;DHT22;6915;48.296;8.874;2022-10-16T10:49:48;20.90;1.00
13686;DHT22;6915;48.296;8.874;2022-10-16T10:52:34;21.00;99.90
13686;DHT22;6915;48.296;8.874;2022-10-16T10:55:10;21.20;1.00
13686;DHT22;6915;48.296;8.874;2022-10-16T10:57:50;21.10;99.90
13686;DHT22;6915;48.296;8.874;2022-10-16T11:00:25;21.10;99.90
13686;DHT22;6915;48.296;8.874;2022-10-16T11:02:59;21.40;1.00
13686;DHT22;6915;48.296;8.874;2022-10-16T11:05:40;21.50;1.00
13686;DHT22;6915;48.296;8.874;2022-10-16T11:08:13;21.80;1.00
13686;DHT22;6915;48.296;8.874;2022-10-16T11:10:48;21.80;1.00
13686;DHT22;6915;48.296;8.874;2022-10-16T11:13:25;21.90;1.00
13686;DHT22;6915;48.296;8.874;2022-10-16T11:15:58;22.00;1.00
13686;DHT22;6915;48.296;8.874;2022-10-16T11:18:32;22.30;99.90
13686;DHT22;6915;48.296;8.874;2022-10-16T11:21:04;22.40;1.00
13686;DHT22;6915;48.296;8.874;2022-10-16T11:23:37;22.60;1.00
13686;DHT22;6915;48.296;8.874;2022-10-16T11:26:14;22.80;99.90
13686;DHT22;6915;48.296;8.874;2022-10-16T11:28:46;22.90;1.00
13686;DHT22;6915;48.296;8.874;2022-10-16T11:31:19;22.90;99.90
13686;DHT22;6915;48.296;8.874;2022-10-16T11:33:53;22.90;99.90
13686;DHT22;6915;48.296;8.874;2022-10-16T11:36:25;22.90;1.00
13686;DHT22;6915;48.296;8.874;2022-10-16T11:38:59;23.00;99.90
13686;DHT22;6915;48.296;8.874;2022-10-16T11:41:34;22.90;1.00
13686;DHT22;6915;48.296;8.874;2022-10-16T11:44:15;23.00;1.00
13686;DHT22;6915;48.296;8.874;2022-10-16T11:46:50;23.30;1.00
13686;DHT22;6915;48.296;8.874;2022-10-16T11:49:20;23.50;1.00
13686;DHT22;6915;48.296;8.874;2022-10-16T11:51:54;23.60;1.00
13686;DHT22;6915;48.296;8.874;2022-10-16T11:54:34;23.60;99.90
13686;DHT22;6915;48.296;8.874;2022-10-16T11:57:09;23.50;99.90
13686;DHT22;6915;48.296;8.874;2022-10-16T11:59:42;23.30;99.90
13686;DHT22;6915;48.296;8.874;2022-10-16T12:02:26;23.40;1.00
13686;DHT22;6915;48.296;8.874;2022-10-16T12:05:05;23.60;99.90
13686;DHT22;6915;48.296;8.874;2022-10-16T12:07:36;23.60;99.90
13686;DHT22;6915;48.296;8.874;2022-10-16T12:10:20;23.60;99.90
13686;DHT22;6915;48.296;8.874;2022-10-16T12:12:47;23.60;99.90
13686;DHT22;6915;48.296;8.874;2022-10-16T12:15:23;23.60;99.90
13686;DHT22;6915;48.296;8.874;2022-10-16T12:17:51;23.40;1.00
13686;DHT22;6915;48.296;8.874;2022-10-16T12:20:25;23.40;99.90
13686;DHT22;6915;48.296;8.874;2022-10-16T12:22:54;23.40;99.90
13686;DHT22;6915;48.296;8.874;2022-10-16T12:25:26;23.60;99.90
13686;DHT22;6915;48.296;8.874;2022-10-16T12:28:01;23.80;99.90
13686;DHT22;6915;48.296;8.874;2022-10-16T12:30:31;23.70;99.90
13686;DHT22;6915;48.296;8.874;2022-10-16T12:33:00;23.50;99.90
13686;DHT22;6915;48.296;8.874;2022-10-16T12:35:30;23.50;99.90
13686;DHT22;6915;48.296;8.874;2022-10-16T12:38:15;23.50;99.90
13686;DHT22;6915;48.296;8.874;2022-10-16T12:40:45;23.70;99.90
13686;DHT22;6915;48.296;8.874;2022-10-16T12:43:25;24.00;1.00
13686;DHT22;6915;48.296;8.874;2022-10-16T12:46:00;24.10;99.90
13686;DHT22;6915;48.296;8.874;2022-10-16T12:48:27;24.00;1.00
13686;DHT22;6915;48.296;8.874;2022-10-16T12:50:56;24.20;84.60
13686;DHT22;6915;48.296;8.874;2022-10-16T12:53:25;24.20;1.00
13686;DHT22;6915;48.296;8.874;2022-10-16T12:56:03;24.40;14.70
13686;DHT22;6915;48.296;8.874;2022-10-16T13:01:41;24.70;1.00
13686;DHT22;6915;48.296;8.874;2022-10-16T13:04:27;24.80;9.80
13686;DHT22;6915;48.296;8.874;2022-10-16T13:07:15;24.90;1.00
13686;DHT22;6915;48.296;8.874;2022-10-16T13:09:55;24.80;1.00
13686;DHT22;6915;48.296;8.874;2022-10-16T13:12:49;24.60;1.00
13686;DHT22;6915;48.296;8.874;2022-10-16T13:15:29;24.50;1.00
13686;DHT22;6915;48.296;8.874;2022-10-16T13:18:05;24.40;1.00
13686;DHT22;6915;48.296;8.874;2022-10-16T13:20:51;24.20;1.00
13686;DHT22;6915;48.296;8.874;2022-10-16T13:23:24;24.30;99.90
13686;DHT22;6915;48.296;8.874;2022-10-16T13:26:04;24.20;1.00
13686;DHT22;6915;48.296;8.874;2022-10-16T13:28:35;24.10;1.00
13686;DHT22;6915;48.296;8.874;2022-10-16T13:31:05;24.10;1.00
13686;DHT22;6915;48.296;8.874;2022-10-16T13:33:33;24.10;99.90
13686;DHT22;6915;48.296;8.874;2022-10-16T13:36:02;24.20;99.90
13686;DHT22;6915;48.296;8.874;2022-10-16T13:38:31;24.30;83.00
13686;DHT22;6915;48.296;8.874;2022-10-16T13:41:00;24.40;1.00
13686;DHT22;6915;48.296;8.874;2022-10-16T13:43:29;24.40;1.00
13686;DHT22;6915;48.296;8.874;2022-10-16T13:46:01;24.50;1.00
13686;DHT22;6915;48.296;8.874;2022-10-16T13:48:29;24.50;1.00
13686;DHT22;6915;48.296;8.874;2022-10-16T13:51:05;24.50;1.00
13686;DHT22;6915;48.296;8.874;2022-10-16T13:53:33;24.60;1.00
13686;DHT22;6915;48.296;8.874;2022-10-16T13:56:03;24.60;1.00
13686;DHT22;6915;48.296;8.874;2022-10-16T13:58:30;24.60;1.00
13686;DHT22;6915;48.296;8.874;2022-10-16T14:01:00;24.40;1.00
13686;DHT22;6915;48.296;8.874;2022-10-16T14:03:29;24.30;1.00
13686;DHT22;6915;48.296;8.874;2022-10-16T14:05:59;24.30;1.00
13686;DHT22;6915;48.296;8.874;2022-10-16T14:08:28;24.20;3.50
13686;DHT22;6915;48.296;8.874;2022-10-16T14:10:57;24.10;1.00
13686;DHT22;6915;48.296;8.874;2022-10-16T14:13:30;24.00;2.10
13686;DHT22;6915;48.296;8.874;2022-10-16T14:16:08;24.00;99.90
13686;DHT22;6915;48.296;8.874;2022-10-16T14:18:37;23.90;99.90
13686;DHT22;6915;48.296;8.874;2022-10-16T14:21:07;23.90;1.00
13686;DHT22;6915;48.296;8.874;2022-10-16T14:23:39;24.00;99.90
13686;DHT22;6915;48.296;8.874;2022-10-16T14:26:15;23.70;1.00
13686;DHT22;6915;48.296;8.874;2022-10-16T14:28:43;23.50;1.00
13686;DHT22;6915;48.296;8.874;2022-10-16T14:31:30;23.40;1.00
13686;DHT22;6915;48.296;8.874;2022-10-16T14:33:57;23.10;1.00
13686;DHT22;6915;48.296;8.874;2022-10-16T14:36:25;23.00;1.00
13686;DHT22;6915;48.296;8.874;2022-10-16T14:39:03;22.90;1.00
13686;DHT22;6915;48.296;8.874;2022-10-16T14:41:33;22.90;86.00
13686;DHT22;6915;48.296;8.874;2022-10-16T14:44:11;22.70;1.00
13686;DHT22;6915;48.296;8.874;2022-10-16T14:46:41;22.50;1.00
13686;DHT22;6915;48.296;8.874;2022-10-16T14:49:16;22.30;1.00
13686;DHT22;6915;48.296;8.874;2022-10-16T14:51:44;22.20;22.80
13686;DHT22;6915;48.296;8.874;2022-10-16T14:54:11;22.10;1.00
13686;DHT22;6915;48.296;8.874;2022-10-16T14:56:45;22.20;1.00
13686;DHT22;6915;48.296;8.874;2022-10-16T14:59:16;22.20;1.00
13686;DHT22;6915;48.296;8.874;2022-10-16T15:01:46;22.20;1.00
13686;DHT22;6915;48.296;8.874;2022-10-16T15:04:13;22.20;13.00
13686;DHT22;6915;48.296;8.874;2022-10-16T15:06:41;22.20;1.00
13686;DHT22;6915;48.296;8.874;2022-10-16T15:09:08;22.10;1.00
13686;DHT22;6915;48.296;8.874;2022-10-16T15:11:35;22.10;47.70
13686;DHT22;6915;48.296;8.874;2022-10-16T15:14:02;21.90;1.00
13686;DHT22;6915;48.296;8.874;2022-10-16T15:16:30;21.80;1.00
13686;DHT22;6915;48.296;8.874;2022-10-16T17:38:08;16.30;99.90
13686;DHT22;6915;48.296;8.874;2022-10-16T20:33:19;15.80;99.90
13686;DHT22;6915;48.296;8.874;2022-10-16T20:35:48;15.80;99.90
13686;DHT22;6915;48.296;8.874;2022-10-16T20:38:16;15.70;99.90
13686;DHT22;6915;48.296;8.874;2022-10-16T20:40:45;15.70;99.90
13686;DHT22;6915;48.296;8.874;2022-10-16T20:43:14;15.70;99.90
13686;DHT22;6915;48.296;8.874;2022-10-16T20:45:42;15.60;99.90
13686;DHT22;6915;48.296;8.874;2022-10-16T20:48:10;15.60;99.90
13686;DHT22;6915;48.296;8.874;2022-10-16T20:50:39;15.50;99.90
13686;DHT22;6915;48.296;8.874;2022-10-16T20:53:07;15.60;1.00
13686;DHT22;6915;48.296;8.874;2022-10-16T20:55:35;15.80;1.00
13686;DHT22;6915;48.296;8.874;2022-10-16T20:58:02;16.10;1.00
13686;DHT22;6915;48.296;8.874;2022-10-16T21:00:29;16.30;1.00
13686;DHT22;6915;48.296;8.874;2022-10-16T21:02:56;16.50;99.90
13686;DHT22;6915;48.296;8.874;2022-10-16T21:05:23;16.90;1.00
13686;DHT22;6915;48.296;8.874;2022-10-16T21:07:54;17.10;1.00
13686;DHT22;6915;48.296;8.874;2022-10-16T21:10:22;17.10;1.00
13686;DHT22;6915;48.296;8.874;2022-10-16T21:12:52;17.10;1.00
13686;DHT22;6915;48.296;8.874;2022-10-16T21:15:19;17.10;99.90
13686;DHT22;6915;48.296;8.874;2022-10-16T21:17:46;17.10;99.90
13686;DHT22;6915;48.296;8.874;2022-10-16T21:20:13;17.10;1.00
13686;DHT22;6915;48.296;8.874;2022-10-16T21:22:40;17.10;1.00
13686;DHT22;6915;48.296;8.874;2022-10-16T21:25:09;16.80;1.00